Aviation Digital Data Service (ADDS)

Output produced by METARs form (1313 UTC 20 October 2021)
found at http://www.aviationweather.gov/metar/data/
 
LHBP 201300Z 17011KT 140V200 CAVOK 19/06 Q1021 NOSIG
LHBP 201230Z 16009KT CAVOK 19/06 Q1021 NOSIG
LHBP 201200Z 17010KT 140V200 CAVOK 18/06 Q1022 NOSIG
LHBP 201130Z 16009KT CAVOK 18/07 Q1022 NOSIG
LHBP 201100Z 18008KT 140V200 CAVOK 17/06 Q1023 NOSIG
LHBP 201030Z 17009KT CAVOK 17/06 Q1023 NOSIG
TAF LHBP 201115Z 2012/2112 16008KT CAVOK 
     BECMG 2019/2021 18013KT 
     BECMG 2106/2109 22020G35KT 
     TEMPO 2109/2112 SCT040 BKN080
       
LHDC 201256Z AUTO 18010KT 150V210 5000 HZ NSC 18/06 Q1023
LHDC 201252Z AUTO 18010KT 150V210 4800 HZ NSC 18/06 Q1023
LHDC 201245Z AUTO 18010KT 150V210 8000 NSC 18/06 Q1023 NOSIG
LHDC 201215Z AUTO 18009KT 150V210 8000 NSC 18/06 Q1023 NOSIG
LHDC 201145Z AUTO 20010KT 160V230 9000 NSC 17/06 Q1024 NOSIG
LHDC 201115Z AUTO 20009KT 160V240 8000 NSC 17/06 Q1024 NOSIG
LHDC 201045Z AUTO 19011KT 160V230 8000 NSC 16/06 Q1025 NOSIG
LHDC 201015Z AUTO 19009KT 150V210 7000 NSC 16/06 Q1025 NOSIG
TAF LHDC 201115Z 2012/2021 18010KT CAVOK
       
LHKE 201245Z 17010KT 130V200 CAVOK 18/08 Q1022 NOSIG RMK BLU
LHKE 201215Z 17008KT 140V200 CAVOK 18/07 Q1022 NOSIG RMK BLU
LHKE 201145Z 16008KT 120V190 CAVOK 17/07 Q1023 NOSIG RMK BLU
LHKE 201115Z 16008KT CAVOK 16/07 Q1023 NOSIG RMK BLU
LHKE 201045Z 16008KT 120V200 CAVOK 17/08 Q1024 NOSIG RMK BLU
LHKE 201015Z 17008KT 120V230 CAVOK 15/07 Q1024 NOSIG RMK BLU
TAF LHKE 201115Z 2012/2021 17008KT CAVOK
       
LHPA 201245Z 17017KT CAVOK 19/06 Q1018 NOSIG RMK BLU
LHPA 201215Z 17016KT CAVOK 19/06 Q1018 NOSIG RMK BLU
LHPA 201145Z 16016KT CAVOK 19/06 Q1019 NOSIG RMK BLU
LHPA 201115Z 18017KT CAVOK 18/06 Q1020 NOSIG RMK BLU
LHPA 201045Z 18014KT CAVOK 18/06 Q1020 NOSIG RMK BLU
LHPA 201015Z 19012KT CAVOK 18/06 Q1021 NOSIG RMK BLU
TAF LHPA 201115Z 2012/2112 18010KT CAVOK 
     BECMG 2012/2015 18012G22KT 
     BECMG 2015/2019 18017G27KT 
     TEMPO 2101/2112 20022G36KT 9999 SQ NSC 
     PROB40 
     TEMPO 2104/2112 9999 SCT020
       
LHPP 201245Z AUTO 17007KT 140V210 CAVOK 20/07 Q1021
LHPP 201215Z AUTO 16006KT 140V210 CAVOK 20/06 Q1022
LHPP 201145Z AUTO 15004KT 110V200 CAVOK 19/07 Q1022
LHPP 201115Z AUTO 20004KT 140V270 CAVOK 19/06 Q1023
LHPP 201045Z AUTO 19003KT 140V240 CAVOK 18/06 Q1023
LHPP 201015Z AUTO VRB02KT CAVOK 18/08 Q1024
TAF LHPP 201115Z 2012/2021 16005KT CAVOK
       
LHPR 201245Z AUTO 14015KT CAVOK 20/08 Q1018 NOSIG
LHPR 201215Z AUTO 14013KT CAVOK 20/08 Q1019 NOSIG
LHPR 201145Z AUTO 13014KT 100V160 CAVOK 20/08 Q1019 NOSIG
LHPR 201115Z AUTO 14013KT CAVOK 20/08 Q1020 NOSIG
LHPR 201045Z AUTO 17009KT 130V210 CAVOK 20/06 Q1020 NOSIG
LHPR 201015Z AUTO VRB09KT CAVOK 18/07 Q1021 NOSIG
TAF LHPR 201115Z 2012/2021 16013KT CAVOK
       
LHSM 201245Z AUTO 19013KT 9000 NCD 20/08 Q1019 NOSIG
LHSM 201215Z AUTO 19013KT 9000 NCD 19/08 Q1019 NOSIG
LHSM 201145Z AUTO 18012KT 9000 NCD 19/08 Q1020 NOSIG
LHSM 201115Z AUTO 17012KT 9000 NCD 18/09 Q1020 NOSIG
LHSM 201045Z AUTO 17012KT 9000 NCD 17/09 Q1021 NOSIG
LHSM 201015Z AUTO 18012KT 150V210 9000 NCD 16/09 Q1022 NOSIG
TAF LHSM 201115Z 2012/2021 17012KT CAVOK 
     TEMPO 2012/2021 18015G25KT
       
LHSN 201245Z 18012KT 150V210 CAVOK 18/07 Q1022 NOSIG RMK BLU
LHSN 201215Z 17010KT 150V210 CAVOK 18/07 Q1022 NOSIG RMK BLU
LHSN 201145Z 19012KT 150V220 CAVOK 18/07 Q1023 NOSIG RMK BLU
LHSN 201115Z 17010KT CAVOK 18/07 Q1023 NOSIG RMK BLU
LHSN 201045Z 17010KT 140V210 CAVOK 17/07 Q1024 NOSIG RMK BLU
LHSN 201015Z 18012KT 150V210 CAVOK 16/07 Q1024 NOSIG RMK BLU
TAF LHSN 201115Z 2012/2021 18010KT CAVOK